sensor_id;sensor_type;location;lat;lon;timestamp;temperature;humidity
14771;DHT22;7477;45.222;5.688;2023-05-20T00:03:16;13.10;99.90
14771;DHT22;7477;45.222;5.688;2023-05-20T00:06:36;13.10;99.90
14771;DHT22;7477;45.222;5.688;2023-05-20T00:09:55;13.10;99.90
14771;DHT22;7477;45.222;5.688;2023-05-20T00:13:14;13.10;99.90
14771;DHT22;7477;45.222;5.688;2023-05-20T00:16:33;13.10;99.90
14771;DHT22;7477;45.222;5.688;2023-05-20T00:19:53;13.10;99.90
14771;DHT22;7477;45.222;5.688;2023-05-20T00:23:12;13.10;99.90
14771;DHT22;7477;45.222;5.688;2023-05-20T00:26:31;13.10;99.90
14771;DHT22;7477;45.222;5.688;2023-05-20T00:29:50;13.00;99.90
14771;DHT22;7477;45.222;5.688;2023-05-20T00:33:10;13.00;99.90
14771;DHT22;7477;45.222;5.688;2023-05-20T00:36:30;13.00;99.90
14771;DHT22;7477;45.222;5.688;2023-05-20T00:39:49;13.10;99.90
14771;DHT22;7477;45.222;5.688;2023-05-20T00:43:09;13.10;99.90
14771;DHT22;7477;45.222;5.688;2023-05-20T00:46:29;13.10;99.90
14771;DHT22;7477;45.222;5.688;2023-05-20T00:49:50;13.10;99.90
14771;DHT22;7477;45.222;5.688;2023-05-20T00:53:09;13.00;99.90
14771;DHT22;7477;45.222;5.688;2023-05-20T00:56:28;13.00;99.90
14771;DHT22;7477;45.222;5.688;2023-05-20T00:59:48;13.00;99.90
14771;DHT22;7477;45.222;5.688;2023-05-20T01:03:08;13.00;99.90
14771;DHT22;7477;45.222;5.688;2023-05-20T01:06:27;13.00;99.90
14771;DHT22;7477;45.222;5.688;2023-05-20T01:09:47;12.90;99.90
14771;DHT22;7477;45.222;5.688;2023-05-20T01:13:10;12.90;99.90
14771;DHT22;7477;45.222;5.688;2023-05-20T01:16:30;13.00;99.90
14771;DHT22;7477;45.222;5.688;2023-05-20T01:19:53;13.00;99.90
14771;DHT22;7477;45.222;5.688;2023-05-20T01:23:14;12.90;99.90
14771;DHT22;7477;45.222;5.688;2023-05-20T01:26:35;12.90;99.90
14771;DHT22;7477;45.222;5.688;2023-05-20T01:29:56;12.90;99.90
14771;DHT22;7477;45.222;5.688;2023-05-20T01:33:19;12.90;99.90
14771;DHT22;7477;45.222;5.688;2023-05-20T01:36:42;12.90;99.90
14771;DHT22;7477;45.222;5.688;2023-05-20T01:40:03;12.90;99.90
14771;DHT22;7477;45.222;5.688;2023-05-20T01:43:24;12.90;99.90
14771;DHT22;7477;45.222;5.688;2023-05-20T01:46:48;12.90;99.90
14771;DHT22;7477;45.222;5.688;2023-05-20T01:50:08;12.80;99.90
14771;DHT22;7477;45.222;5.688;2023-05-20T01:53:28;12.80;99.90
14771;DHT22;7477;45.222;5.688;2023-05-20T01:56:48;12.90;99.90
14771;DHT22;7477;45.222;5.688;2023-05-20T02:00:08;12.80;99.90
14771;DHT22;7477;45.222;5.688;2023-05-20T02:03:27;12.90;99.90
14771;DHT22;7477;45.222;5.688;2023-05-20T02:06:47;12.80;99.90
14771;DHT22;7477;45.222;5.688;2023-05-20T02:10:07;12.80;99.90
14771;DHT22;7477;45.222;5.688;2023-05-20T02:13:26;12.80;99.90
14771;DHT22;7477;45.222;5.688;2023-05-20T02:16:46;12.70;99.90
14771;DHT22;7477;45.222;5.688;2023-05-20T02:20:06;12.80;99.90
14771;DHT22;7477;45.222;5.688;2023-05-20T02:23:25;12.80;99.90
14771;DHT22;7477;45.222;5.688;2023-05-20T02:26:45;12.80;99.90
14771;DHT22;7477;45.222;5.688;2023-05-20T02:30:06;12.80;99.90
14771;DHT22;7477;45.222;5.688;2023-05-20T02:33:26;12.70;99.90
14771;DHT22;7477;45.222;5.688;2023-05-20T02:36:47;12.70;99.90
14771;DHT22;7477;45.222;5.688;2023-05-20T02:40:06;12.70;99.90
14771;DHT22;7477;45.222;5.688;2023-05-20T02:43:27;12.70;99.90
14771;DHT22;7477;45.222;5.688;2023-05-20T02:46:46;12.80;99.90
14771;DHT22;7477;45.222;5.688;2023-05-20T02:50:06;12.80;99.90
14771;DHT22;7477;45.222;5.688;2023-05-20T02:53:26;12.70;99.90
14771;DHT22;7477;45.222;5.688;2023-05-20T02:56:44;12.70;99.90
14771;DHT22;7477;45.222;5.688;2023-05-20T03:00:05;12.70;99.90
14771;DHT22;7477;45.222;5.688;2023-05-20T03:03:25;12.70;99.90
14771;DHT22;7477;45.222;5.688;2023-05-20T03:06:47;12.70;99.90
14771;DHT22;7477;45.222;5.688;2023-05-20T03:10:07;12.70;99.90
14771;DHT22;7477;45.222;5.688;2023-05-20T03:13:27;12.70;99.90
14771;DHT22;7477;45.222;5.688;2023-05-20T03:16:46;12.70;99.90
14771;DHT22;7477;45.222;5.688;2023-05-20T03:20:06;12.70;99.90
14771;DHT22;7477;45.222;5.688;2023-05-20T03:23:26;12.70;99.90
14771;DHT22;7477;45.222;5.688;2023-05-20T03:26:45;12.70;99.90
14771;DHT22;7477;45.222;5.688;2023-05-20T03:30:06;12.70;99.90
14771;DHT22;7477;45.222;5.688;2023-05-20T03:33:25;12.70;99.90
14771;DHT22;7477;45.222;5.688;2023-05-20T03:36:45;12.70;99.90
14771;DHT22;7477;45.222;5.688;2023-05-20T03:40:05;12.70;99.90
14771;DHT22;7477;45.222;5.688;2023-05-20T03:43:24;12.70;99.90
14771;DHT22;7477;45.222;5.688;2023-05-20T03:46:45;12.70;99.90
14771;DHT22;7477;45.222;5.688;2023-05-20T03:50:04;12.70;99.90
14771;DHT22;7477;45.222;5.688;2023-05-20T03:53:24;12.70;99.90
14771;DHT22;7477;45.222;5.688;2023-05-20T03:56:43;12.70;99.90
14771;DHT22;7477;45.222;5.688;2023-05-20T04:00:05;12.60;99.90
14771;DHT22;7477;45.222;5.688;2023-05-20T04:03:28;12.60;99.90
14771;DHT22;7477;45.222;5.688;2023-05-20T04:06:47;12.70;99.90
14771;DHT22;7477;45.222;5.688;2023-05-20T04:10:07;12.60;99.90
14771;DHT22;7477;45.222;5.688;2023-05-20T04:13:27;12.60;99.90
14771;DHT22;7477;45.222;5.688;2023-05-20T04:16:46;12.60;99.90
14771;DHT22;7477;45.222;5.688;2023-05-20T04:20:06;12.70;99.90
14771;DHT22;7477;45.222;5.688;2023-05-20T04:23:26;12.70;99.90
14771;DHT22;7477;45.222;5.688;2023-05-20T04:26:45;12.70;99.90
14771;DHT22;7477;45.222;5.688;2023-05-20T04:30:05;12.60;99.90
14771;DHT22;7477;45.222;5.688;2023-05-20T04:33:25;12.60;99.90
14771;DHT22;7477;45.222;5.688;2023-05-20T04:36:45;12.60;99.90
14771;DHT22;7477;45.222;5.688;2023-05-20T04:40:05;12.60;99.90
14771;DHT22;7477;45.222;5.688;2023-05-20T04:43:25;12.60;99.90
14771;DHT22;7477;45.222;5.688;2023-05-20T04:46:48;12.60;99.90
14771;DHT22;7477;45.222;5.688;2023-05-20T04:50:08;12.60;99.90
14771;DHT22;7477;45.222;5.688;2023-05-20T04:53:31;12.60;99.90
14771;DHT22;7477;45.222;5.688;2023-05-20T04:56:51;12.60;99.90
14771;DHT22;7477;45.222;5.688;2023-05-20T05:00:11;12.60;99.90
14771;DHT22;7477;45.222;5.688;2023-05-20T05:03:31;12.60;99.90
14771;DHT22;7477;45.222;5.688;2023-05-20T05:06:50;12.60;99.90
14771;DHT22;7477;45.222;5.688;2023-05-20T05:10:10;12.60;99.90
14771;DHT22;7477;45.222;5.688;2023-05-20T05:13:29;12.60;99.90
14771;DHT22;7477;45.222;5.688;2023-05-20T05:16:48;12.60;99.90
14771;DHT22;7477;45.222;5.688;2023-05-20T05:20:08;12.60;99.90
14771;DHT22;7477;45.222;5.688;2023-05-20T05:23:27;12.50;99.90
14771;DHT22;7477;45.222;5.688;2023-05-20T05:26:47;12.60;99.90
14771;DHT22;7477;45.222;5.688;2023-05-20T05:30:06;12.60;99.90
14771;DHT22;7477;45.222;5.688;2023-05-20T05:33:27;12.60;99.90
14771;DHT22;7477;45.222;5.688;2023-05-20T05:36:46;12.60;99.90
14771;DHT22;7477;45.222;5.688;2023-05-20T05:40:06;12.70;99.90
14771;DHT22;7477;45.222;5.688;2023-05-20T05:43:26;12.70;99.90
14771;DHT22;7477;45.222;5.688;2023-05-20T05:46:45;12.80;99.90
14771;DHT22;7477;45.222;5.688;2023-05-20T05:50:05;12.80;99.90
14771;DHT22;7477;45.222;5.688;2023-05-20T05:53:24;12.80;99.90
14771;DHT22;7477;45.222;5.688;2023-05-20T05:56:43;12.70;99.90
14771;DHT22;7477;45.222;5.688;2023-05-20T06:00:03;12.70;99.90
14771;DHT22;7477;45.222;5.688;2023-05-20T06:03:23;12.70;99.90
14771;DHT22;7477;45.222;5.688;2023-05-20T06:06:42;12.80;99.90
14771;DHT22;7477;45.222;5.688;2023-05-20T06:10:01;12.80;99.90
14771;DHT22;7477;45.222;5.688;2023-05-20T06:13:22;12.80;99.90
14771;DHT22;7477;45.222;5.688;2023-05-20T06:16:41;12.80;99.90
14771;DHT22;7477;45.222;5.688;2023-05-20T06:20:01;12.80;99.90
14771;DHT22;7477;45.222;5.688;2023-05-20T06:23:20;12.80;99.90
14771;DHT22;7477;45.222;5.688;2023-05-20T06:26:39;12.90;99.90
14771;DHT22;7477;45.222;5.688;2023-05-20T06:29:58;13.00;99.90
14771;DHT22;7477;45.222;5.688;2023-05-20T06:33:18;13.00;99.90
14771;DHT22;7477;45.222;5.688;2023-05-20T06:36:38;13.00;99.90
14771;DHT22;7477;45.222;5.688;2023-05-20T06:39:57;13.00;99.90
14771;DHT22;7477;45.222;5.688;2023-05-20T06:43:16;13.00;99.90
14771;DHT22;7477;45.222;5.688;2023-05-20T06:46:36;13.10;99.90
14771;DHT22;7477;45.222;5.688;2023-05-20T06:49:55;13.10;99.90
14771;DHT22;7477;45.222;5.688;2023-05-20T06:53:14;13.10;99.90
14771;DHT22;7477;45.222;5.688;2023-05-20T06:56:33;13.10;99.90
14771;DHT22;7477;45.222;5.688;2023-05-20T06:59:52;13.20;99.90
14771;DHT22;7477;45.222;5.688;2023-05-20T07:03:11;13.10;99.90
14771;DHT22;7477;45.222;5.688;2023-05-20T07:06:30;13.20;99.90
14771;DHT22;7477;45.222;5.688;2023-05-20T07:09:53;13.20;99.90
14771;DHT22;7477;45.222;5.688;2023-05-20T07:13:12;13.30;99.90
14771;DHT22;7477;45.222;5.688;2023-05-20T07:16:32;13.40;99.90
14771;DHT22;7477;45.222;5.688;2023-05-20T07:19:52;13.50;99.90
14771;DHT22;7477;45.222;5.688;2023-05-20T07:23:11;13.60;99.90
14771;DHT22;7477;45.222;5.688;2023-05-20T07:26:30;13.60;99.90
14771;DHT22;7477;45.222;5.688;2023-05-20T07:29:51;13.70;99.90
14771;DHT22;7477;45.222;5.688;2023-05-20T07:33:10;13.70;99.90
14771;DHT22;7477;45.222;5.688;2023-05-20T07:36:30;13.70;99.90
14771;DHT22;7477;45.222;5.688;2023-05-20T07:39:49;13.70;99.90
14771;DHT22;7477;45.222;5.688;2023-05-20T07:43:09;13.80;99.90
14771;DHT22;7477;45.222;5.688;2023-05-20T07:46:29;13.80;99.90
14771;DHT22;7477;45.222;5.688;2023-05-20T07:49:48;13.80;99.90
14771;DHT22;7477;45.222;5.688;2023-05-20T07:53:07;13.80;99.90
14771;DHT22;7477;45.222;5.688;2023-05-20T07:56:27;14.30;99.90
14771;DHT22;7477;45.222;5.688;2023-05-20T07:59:46;14.10;99.90
14771;DHT22;7477;45.222;5.688;2023-05-20T08:03:05;14.00;99.90
14771;DHT22;7477;45.222;5.688;2023-05-20T08:06:25;14.10;99.90
14771;DHT22;7477;45.222;5.688;2023-05-20T08:09:45;14.10;99.90
14771;DHT22;7477;45.222;5.688;2023-05-20T08:13:04;14.10;99.90
14771;DHT22;7477;45.222;5.688;2023-05-20T08:16:24;14.10;99.90
14771;DHT22;7477;45.222;5.688;2023-05-20T08:19:43;14.10;99.90
14771;DHT22;7477;45.222;5.688;2023-05-20T08:23:03;14.10;99.90
14771;DHT22;7477;45.222;5.688;2023-05-20T08:26:22;14.20;99.90
14771;DHT22;7477;45.222;5.688;2023-05-20T08:29:43;14.20;99.90
14771;DHT22;7477;45.222;5.688;2023-05-20T08:33:02;14.10;99.90
14771;DHT22;7477;45.222;5.688;2023-05-20T08:36:22;14.10;99.90
14771;DHT22;7477;45.222;5.688;2023-05-20T08:39:42;14.20;99.90
14771;DHT22;7477;45.222;5.688;2023-05-20T08:43:03;14.30;99.90
14771;DHT22;7477;45.222;5.688;2023-05-20T08:46:22;14.30;99.90
14771;DHT22;7477;45.222;5.688;2023-05-20T08:49:42;14.40;99.90
14771;DHT22;7477;45.222;5.688;2023-05-20T08:53:01;14.40;99.90
14771;DHT22;7477;45.222;5.688;2023-05-20T08:56:20;14.50;99.90
14771;DHT22;7477;45.222;5.688;2023-05-20T08:59:45;14.60;99.90
14771;DHT22;7477;45.222;5.688;2023-05-20T09:03:07;14.60;99.90
14771;DHT22;7477;45.222;5.688;2023-05-20T09:06:26;14.70;99.90
14771;DHT22;7477;45.222;5.688;2023-05-20T09:09:46;14.80;99.90
14771;DHT22;7477;45.222;5.688;2023-05-20T09:13:06;14.80;99.90
14771;DHT22;7477;45.222;5.688;2023-05-20T09:16:26;14.70;99.90
14771;DHT22;7477;45.222;5.688;2023-05-20T09:19:50;14.70;99.90
14771;DHT22;7477;45.222;5.688;2023-05-20T09:23:10;14.70;99.90
14771;DHT22;7477;45.222;5.688;2023-05-20T09:26:30;14.80;99.90
14771;DHT22;7477;45.222;5.688;2023-05-20T09:29:50;14.90;99.90
14771;DHT22;7477;45.222;5.688;2023-05-20T09:33:10;15.00;99.90
14771;DHT22;7477;45.222;5.688;2023-05-20T09:36:33;15.10;99.90
14771;DHT22;7477;45.222;5.688;2023-05-20T09:39:59;15.10;99.90
14771;DHT22;7477;45.222;5.688;2023-05-20T09:43:22;15.10;99.90
14771;DHT22;7477;45.222;5.688;2023-05-20T09:46:41;15.30;99.90
14771;DHT22;7477;45.222;5.688;2023-05-20T09:50:02;15.30;99.90
14771;DHT22;7477;45.222;5.688;2023-05-20T09:53:25;15.30;99.90
14771;DHT22;7477;45.222;5.688;2023-05-20T09:56:46;15.20;99.90
14771;DHT22;7477;45.222;5.688;2023-05-20T10:00:06;15.20;99.90
14771;DHT22;7477;45.222;5.688;2023-05-20T10:03:32;15.20;99.90
14771;DHT22;7477;45.222;5.688;2023-05-20T10:17:58;15.50;99.90
14771;DHT22;7477;45.222;5.688;2023-05-20T10:21:22;15.40;99.90
14771;DHT22;7477;45.222;5.688;2023-05-20T10:24:43;15.40;99.90
14771;DHT22;7477;45.222;5.688;2023-05-20T10:28:07;15.40;99.90
14771;DHT22;7477;45.222;5.688;2023-05-20T10:31:27;15.50;99.90
14771;DHT22;7477;45.222;5.688;2023-05-20T10:34:48;15.70;99.90
14771;DHT22;7477;45.222;5.688;2023-05-20T10:38:10;15.70;99.90
14771;DHT22;7477;45.222;5.688;2023-05-20T10:41:29;15.70;99.90
14771;DHT22;7477;45.222;5.688;2023-05-20T10:44:49;15.90;99.90
14771;DHT22;7477;45.222;5.688;2023-05-20T10:48:31;15.90;99.90
14771;DHT22;7477;45.222;5.688;2023-05-20T10:51:50;15.90;99.90
14771;DHT22;7477;45.222;5.688;2023-05-20T10:55:20;16.00;99.90
14771;DHT22;7477;45.222;5.688;2023-05-20T10:58:40;16.10;99.90
14771;DHT22;7477;45.222;5.688;2023-05-20T11:02:00;16.00;99.90
14771;DHT22;7477;45.222;5.688;2023-05-20T11:05:20;16.00;99.90
14771;DHT22;7477;45.222;5.688;2023-05-20T11:08:40;16.00;99.90
14771;DHT22;7477;45.222;5.688;2023-05-20T11:12:01;16.00;99.90
14771;DHT22;7477;45.222;5.688;2023-05-20T11:15:21;15.90;99.90
14771;DHT22;7477;45.222;5.688;2023-05-20T11:18:43;15.90;99.90
14771;DHT22;7477;45.222;5.688;2023-05-20T11:22:02;15.90;99.90
14771;DHT22;7477;45.222;5.688;2023-05-20T11:25:22;15.90;99.90
14771;DHT22;7477;45.222;5.688;2023-05-20T11:28:42;15.90;99.90
14771;DHT22;7477;45.222;5.688;2023-05-20T11:32:01;15.90;99.90
14771;DHT22;7477;45.222;5.688;2023-05-20T11:35:24;15.90;99.90
14771;DHT22;7477;45.222;5.688;2023-05-20T11:38:45;15.90;99.90
14771;DHT22;7477;45.222;5.688;2023-05-20T11:42:05;16.00;99.90
14771;DHT22;7477;45.222;5.688;2023-05-20T11:45:25;16.00;99.90
14771;DHT22;7477;45.222;5.688;2023-05-20T11:48:55;16.00;99.90
14771;DHT22;7477;45.222;5.688;2023-05-20T11:52:15;16.00;99.90
14771;DHT22;7477;45.222;5.688;2023-05-20T11:55:44;16.00;99.90
14771;DHT22;7477;45.222;5.688;2023-05-20T11:59:05;16.10;99.90
14771;DHT22;7477;45.222;5.688;2023-05-20T12:02:26;16.20;99.90
14771;DHT22;7477;45.222;5.688;2023-05-20T12:05:45;16.20;99.90
14771;DHT22;7477;45.222;5.688;2023-05-20T12:09:06;16.10;99.90
14771;DHT22;7477;45.222;5.688;2023-05-20T12:12:26;16.10;99.90
14771;DHT22;7477;45.222;5.688;2023-05-20T12:15:45;16.00;99.90
14771;DHT22;7477;45.222;5.688;2023-05-20T12:19:05;16.00;99.90
14771;DHT22;7477;45.222;5.688;2023-05-20T12:22:23;16.00;99.90
14771;DHT22;7477;45.222;5.688;2023-05-20T12:25:43;16.00;99.90
14771;DHT22;7477;45.222;5.688;2023-05-20T12:29:05;16.00;99.90
14771;DHT22;7477;45.222;5.688;2023-05-20T12:32:24;16.00;99.90
14771;DHT22;7477;45.222;5.688;2023-05-20T12:35:43;16.00;99.90
14771;DHT22;7477;45.222;5.688;2023-05-20T12:39:04;15.90;99.90
14771;DHT22;7477;45.222;5.688;2023-05-20T12:42:24;16.00;99.90
14771;DHT22;7477;45.222;5.688;2023-05-20T12:45:43;16.00;99.90
14771;DHT22;7477;45.222;5.688;2023-05-20T12:49:03;16.00;99.90
14771;DHT22;7477;45.222;5.688;2023-05-20T12:52:22;16.10;99.90
14771;DHT22;7477;45.222;5.688;2023-05-20T12:55:42;16.20;99.90
14771;DHT22;7477;45.222;5.688;2023-05-20T12:59:02;16.30;99.90
14771;DHT22;7477;45.222;5.688;2023-05-20T13:02:21;16.30;99.90
14771;DHT22;7477;45.222;5.688;2023-05-20T13:05:40;16.30;99.90
14771;DHT22;7477;45.222;5.688;2023-05-20T13:08:59;16.30;99.90
14771;DHT22;7477;45.222;5.688;2023-05-20T13:12:19;16.30;99.90
14771;DHT22;7477;45.222;5.688;2023-05-20T13:15:38;16.40;99.90
14771;DHT22;7477;45.222;5.688;2023-05-20T13:18:58;16.40;99.90
14771;DHT22;7477;45.222;5.688;2023-05-20T13:22:17;16.50;99.90
14771;DHT22;7477;45.222;5.688;2023-05-20T13:25:37;16.40;99.90
14771;DHT22;7477;45.222;5.688;2023-05-20T13:28:56;16.40;99.90
14771;DHT22;7477;45.222;5.688;2023-05-20T13:32:17;16.40;99.90
14771;DHT22;7477;45.222;5.688;2023-05-20T13:35:36;16.40;99.90
14771;DHT22;7477;45.222;5.688;2023-05-20T13:38:55;16.40;99.90
14771;DHT22;7477;45.222;5.688;2023-05-20T13:42:15;16.40;99.90
14771;DHT22;7477;45.222;5.688;2023-05-20T13:45:34;16.40;99.90
14771;DHT22;7477;45.222;5.688;2023-05-20T13:48:53;16.40;99.90
14771;DHT22;7477;45.222;5.688;2023-05-20T13:52:12;16.30;99.90
14771;DHT22;7477;45.222;5.688;2023-05-20T13:55:32;16.40;99.90
14771;DHT22;7477;45.222;5.688;2023-05-20T13:58:51;16.40;99.90
14771;DHT22;7477;45.222;5.688;2023-05-20T14:02:11;16.30;99.90
14771;DHT22;7477;45.222;5.688;2023-05-20T14:05:30;16.30;99.90
14771;DHT22;7477;45.222;5.688;2023-05-20T14:08:53;16.30;99.90
14771;DHT22;7477;45.222;5.688;2023-05-20T14:12:13;16.30;99.90
14771;DHT22;7477;45.222;5.688;2023-05-20T14:15:32;16.40;99.90
14771;DHT22;7477;45.222;5.688;2023-05-20T14:18:51;16.30;99.90
14771;DHT22;7477;45.222;5.688;2023-05-20T14:22:10;16.40;99.90
14771;DHT22;7477;45.222;5.688;2023-05-20T14:25:32;16.40;99.90
14771;DHT22;7477;45.222;5.688;2023-05-20T14:28:51;16.40;99.90
14771;DHT22;7477;45.222;5.688;2023-05-20T14:32:10;16.40;99.90
14771;DHT22;7477;45.222;5.688;2023-05-20T14:35:31;16.40;99.90
14771;DHT22;7477;45.222;5.688;2023-05-20T14:38:50;16.40;99.90
14771;DHT22;7477;45.222;5.688;2023-05-20T14:42:10;16.40;99.90
14771;DHT22;7477;45.222;5.688;2023-05-20T14:45:29;16.40;99.90
14771;DHT22;7477;45.222;5.688;2023-05-20T14:48:48;16.40;99.90
14771;DHT22;7477;45.222;5.688;2023-05-20T14:52:07;16.40;99.90
14771;DHT22;7477;45.222;5.688;2023-05-20T14:55:26;16.50;99.90
14771;DHT22;7477;45.222;5.688;2023-05-20T14:58:45;16.50;99.90
14771;DHT22;7477;45.222;5.688;2023-05-20T15:02:04;16.50;99.90
14771;DHT22;7477;45.222;5.688;2023-05-20T15:05:24;16.50;99.90
14771;DHT22;7477;45.222;5.688;2023-05-20T15:08:43;16.50;99.90
14771;DHT22;7477;45.222;5.688;2023-05-20T15:12:02;16.50;99.90
14771;DHT22;7477;45.222;5.688;2023-05-20T15:15:21;16.50;99.90
14771;DHT22;7477;45.222;5.688;2023-05-20T15:18:40;16.50;99.90
14771;DHT22;7477;45.222;5.688;2023-05-20T15:22:00;16.50;99.90
14771;DHT22;7477;45.222;5.688;2023-05-20T15:25:19;16.50;99.90
14771;DHT22;7477;45.222;5.688;2023-05-20T15:28:40;16.50;99.90
14771;DHT22;7477;45.222;5.688;2023-05-20T15:31:59;16.50;99.90
14771;DHT22;7477;45.222;5.688;2023-05-20T15:35:19;16.50;99.90
14771;DHT22;7477;45.222;5.688;2023-05-20T15:38:38;16.50;99.90
14771;DHT22;7477;45.222;5.688;2023-05-20T15:41:58;16.50;99.90
14771;DHT22;7477;45.222;5.688;2023-05-20T15:45:20;16.50;99.90
14771;DHT22;7477;45.222;5.688;2023-05-20T15:48:40;16.50;99.90
14771;DHT22;7477;45.222;5.688;2023-05-20T15:51:59;16.50;99.90
14771;DHT22;7477;45.222;5.688;2023-05-20T15:55:19;16.50;99.90
14771;DHT22;7477;45.222;5.688;2023-05-20T15:58:41;16.60;99.90
14771;DHT22;7477;45.222;5.688;2023-05-20T16:02:00;16.60;99.90
14771;DHT22;7477;45.222;5.688;2023-05-20T16:05:19;16.60;99.90
14771;DHT22;7477;45.222;5.688;2023-05-20T16:08:42;16.60;99.90
14771;DHT22;7477;45.222;5.688;2023-05-20T16:12:02;16.60;99.90
14771;DHT22;7477;45.222;5.688;2023-05-20T16:15:21;16.60;99.90
14771;DHT22;7477;45.222;5.688;2023-05-20T16:18:40;16.60;99.90
14771;DHT22;7477;45.222;5.688;2023-05-20T16:22:00;16.60;99.90
14771;DHT22;7477;45.222;5.688;2023-05-20T16:25:19;16.50;99.90
14771;DHT22;7477;45.222;5.688;2023-05-20T16:28:39;16.50;99.90
14771;DHT22;7477;45.222;5.688;2023-05-20T16:31:58;16.60;99.90
14771;DHT22;7477;45.222;5.688;2023-05-20T16:35:17;16.60;99.90
14771;DHT22;7477;45.222;5.688;2023-05-20T16:38:36;16.60;99.90
14771;DHT22;7477;45.222;5.688;2023-05-20T16:41:55;16.60;99.90
14771;DHT22;7477;45.222;5.688;2023-05-20T16:45:15;16.60;99.90
14771;DHT22;7477;45.222;5.688;2023-05-20T16:48:34;16.60;99.90
14771;DHT22;7477;45.222;5.688;2023-05-20T16:51:53;16.60;99.90
14771;DHT22;7477;45.222;5.688;2023-05-20T16:55:12;16.60;99.90
14771;DHT22;7477;45.222;5.688;2023-05-20T16:58:32;16.60;99.90
14771;DHT22;7477;45.222;5.688;2023-05-20T17:01:51;16.60;99.90
14771;DHT22;7477;45.222;5.688;2023-05-20T17:05:10;16.70;99.90
14771;DHT22;7477;45.222;5.688;2023-05-20T17:08:29;16.60;99.90
14771;DHT22;7477;45.222;5.688;2023-05-20T17:11:49;16.60;99.90
14771;DHT22;7477;45.222;5.688;2023-05-20T17:15:09;16.60;99.90
14771;DHT22;7477;45.222;5.688;2023-05-20T17:18:28;16.60;99.90
14771;DHT22;7477;45.222;5.688;2023-05-20T17:21:47;16.60;99.90
14771;DHT22;7477;45.222;5.688;2023-05-20T17:25:07;16.60;99.90
14771;DHT22;7477;45.222;5.688;2023-05-20T17:28:26;16.60;99.90
14771;DHT22;7477;45.222;5.688;2023-05-20T17:31:45;16.60;99.90
14771;DHT22;7477;45.222;5.688;2023-05-20T17:35:06;16.60;99.90
14771;DHT22;7477;45.222;5.688;2023-05-20T17:38:25;16.60;99.90
14771;DHT22;7477;45.222;5.688;2023-05-20T17:41:44;16.60;99.90
14771;DHT22;7477;45.222;5.688;2023-05-20T17:45:05;16.60;99.90
14771;DHT22;7477;45.222;5.688;2023-05-20T17:48:26;16.60;99.90
14771;DHT22;7477;45.222;5.688;2023-05-20T17:51:45;16.60;99.90
14771;DHT22;7477;45.222;5.688;2023-05-20T17:55:05;16.60;99.90
14771;DHT22;7477;45.222;5.688;2023-05-20T17:58:24;16.60;99.90
14771;DHT22;7477;45.222;5.688;2023-05-20T18:01:44;16.60;99.90
14771;DHT22;7477;45.222;5.688;2023-05-20T18:05:05;16.60;99.90
14771;DHT22;7477;45.222;5.688;2023-05-20T18:08:24;16.50;99.90
14771;DHT22;7477;45.222;5.688;2023-05-20T18:11:43;16.50;99.90
14771;DHT22;7477;45.222;5.688;2023-05-20T18:15:03;16.50;99.90
14771;DHT22;7477;45.222;5.688;2023-05-20T18:18:24;16.40;99.90
14771;DHT22;7477;45.222;5.688;2023-05-20T18:21:43;16.40;99.90
14771;DHT22;7477;45.222;5.688;2023-05-20T18:25:02;16.40;99.90
14771;DHT22;7477;45.222;5.688;2023-05-20T18:28:22;16.30;99.90
14771;DHT22;7477;45.222;5.688;2023-05-20T18:31:41;16.30;99.90
14771;DHT22;7477;45.222;5.688;2023-05-20T18:35:00;16.40;99.90
14771;DHT22;7477;45.222;5.688;2023-05-20T18:38:20;16.30;99.90
14771;DHT22;7477;45.222;5.688;2023-05-20T18:41:39;16.30;99.90
14771;DHT22;7477;45.222;5.688;2023-05-20T18:44:58;16.30;99.90
14771;DHT22;7477;45.222;5.688;2023-05-20T18:48:18;16.30;99.90
14771;DHT22;7477;45.222;5.688;2023-05-20T18:51:39;16.30;99.90
14771;DHT22;7477;45.222;5.688;2023-05-20T18:54:58;16.30;99.90
14771;DHT22;7477;45.222;5.688;2023-05-20T18:58:17;16.30;99.90
14771;DHT22;7477;45.222;5.688;2023-05-20T19:01:36;16.30;99.90
14771;DHT22;7477;45.222;5.688;2023-05-20T19:04:56;16.20;99.90
14771;DHT22;7477;45.222;5.688;2023-05-20T19:08:15;16.20;99.90
14771;DHT22;7477;45.222;5.688;2023-05-20T19:11:35;16.10;99.90
14771;DHT22;7477;45.222;5.688;2023-05-20T19:14:54;16.10;99.90
14771;DHT22;7477;45.222;5.688;2023-05-20T19:18:13;16.10;99.90
14771;DHT22;7477;45.222;5.688;2023-05-20T19:21:32;16.10;99.90
14771;DHT22;7477;45.222;5.688;2023-05-20T19:24:52;16.20;99.90
14771;DHT22;7477;45.222;5.688;2023-05-20T19:28:11;16.10;99.90
14771;DHT22;7477;45.222;5.688;2023-05-20T19:31:30;16.10;99.90
14771;DHT22;7477;45.222;5.688;2023-05-20T19:34:50;16.10;99.90
14771;DHT22;7477;45.222;5.688;2023-05-20T19:38:09;16.00;99.90
14771;DHT22;7477;45.222;5.688;2023-05-20T19:41:29;16.00;99.90
14771;DHT22;7477;45.222;5.688;2023-05-20T19:44:48;16.00;99.90
14771;DHT22;7477;45.222;5.688;2023-05-20T19:48:08;15.90;99.90
14771;DHT22;7477;45.222;5.688;2023-05-20T19:51:27;15.80;99.90
14771;DHT22;7477;45.222;5.688;2023-05-20T19:54:47;15.90;99.90
14771;DHT22;7477;45.222;5.688;2023-05-20T19:58:06;15.90;99.90
14771;DHT22;7477;45.222;5.688;2023-05-20T20:01:26;15.80;99.90
14771;DHT22;7477;45.222;5.688;2023-05-20T20:04:45;15.80;99.90
14771;DHT22;7477;45.222;5.688;2023-05-20T20:08:05;15.80;99.90
14771;DHT22;7477;45.222;5.688;2023-05-20T20:11:24;15.80;99.90
14771;DHT22;7477;45.222;5.688;2023-05-20T20:14:44;15.80;99.90
14771;DHT22;7477;45.222;5.688;2023-05-20T20:18:03;15.80;99.90
14771;DHT22;7477;45.222;5.688;2023-05-20T20:21:23;15.70;99.90
14771;DHT22;7477;45.222;5.688;2023-05-20T20:24:43;15.70;99.90
14771;DHT22;7477;45.222;5.688;2023-05-20T20:28:03;15.70;99.90
14771;DHT22;7477;45.222;5.688;2023-05-20T20:31:22;15.70;99.90
14771;DHT22;7477;45.222;5.688;2023-05-20T20:34:41;15.70;99.90
14771;DHT22;7477;45.222;5.688;2023-05-20T20:38:01;15.70;99.90
14771;DHT22;7477;45.222;5.688;2023-05-20T20:41:27;15.60;99.90
14771;DHT22;7477;45.222;5.688;2023-05-20T20:44:48;15.60;99.90
14771;DHT22;7477;45.222;5.688;2023-05-20T20:48:12;15.60;99.90
14771;DHT22;7477;45.222;5.688;2023-05-20T20:51:35;15.60;99.90
14771;DHT22;7477;45.222;5.688;2023-05-20T20:54:55;15.50;99.90
14771;DHT22;7477;45.222;5.688;2023-05-20T20:58:16;15.60;99.90
14771;DHT22;7477;45.222;5.688;2023-05-20T21:01:35;15.60;99.90
14771;DHT22;7477;45.222;5.688;2023-05-20T21:04:55;15.60;99.90
14771;DHT22;7477;45.222;5.688;2023-05-20T21:08:17;15.60;99.90
14771;DHT22;7477;45.222;5.688;2023-05-20T21:11:39;15.60;99.90
14771;DHT22;7477;45.222;5.688;2023-05-20T21:15:03;15.50;99.90
14771;DHT22;7477;45.222;5.688;2023-05-20T21:18:23;15.50;99.90
14771;DHT22;7477;45.222;5.688;2023-05-20T21:21:42;15.50;99.90
14771;DHT22;7477;45.222;5.688;2023-05-20T21:25:01;15.50;99.90
14771;DHT22;7477;45.222;5.688;2023-05-20T21:28:21;15.50;99.90
14771;DHT22;7477;45.222;5.688;2023-05-20T21:31:40;15.50;99.90
14771;DHT22;7477;45.222;5.688;2023-05-20T21:35:00;15.50;99.90